createdAt,value
2022-09-24T00:00:53.296Z,10.43
2022-09-24T00:03:25.287Z,10.47
2022-09-24T00:05:53.662Z,10.44
2022-09-24T00:08:21.678Z,10.48
2022-09-24T00:10:49.907Z,10.67
2022-09-24T00:13:19.139Z,10.59
2022-09-24T00:15:48.748Z,10.66
2022-09-24T00:18:19.171Z,10.51
2022-09-24T00:20:48.547Z,10.48
2022-09-24T00:23:15.879Z,10.54
2022-09-24T00:26:01.352Z,10.63
2022-09-24T00:28:28.942Z,10.67
2022-09-24T00:30:58.311Z,10.33
2022-09-24T00:33:26.442Z,10.47
2022-09-24T00:36:00.871Z,10.32
2022-09-24T00:38:28.260Z,10.27
2022-09-24T00:40:56.115Z,10.28
2022-09-24T00:43:28.467Z,10.39
2022-09-24T00:46:00.991Z,10.51
2022-09-24T00:48:28.359Z,10.44
2022-09-24T00:50:57.163Z,10.39
2022-09-24T00:53:29.023Z,10.41
2022-09-24T00:55:57.410Z,10.20
2022-09-24T00:58:26.002Z,10.21
2022-09-24T01:00:59.978Z,10.18
2022-09-24T01:03:28.614Z,10.34
2022-09-24T01:05:57.846Z,10.06
2022-09-24T01:08:25.419Z,9.96
2022-09-24T01:11:08.049Z,9.81
2022-09-24T01:13:55.350Z,9.95
2022-09-24T01:16:31.128Z,9.69
2022-09-24T01:19:10.550Z,9.88
2022-09-24T01:21:49.059Z,10.08
2022-09-24T01:24:30.287Z,9.85
2022-09-24T01:27:09.292Z,9.82
2022-09-24T01:29:49.977Z,9.77
2022-09-24T01:32:26.763Z,9.62
2022-09-24T01:35:01.899Z,9.70
2022-09-24T01:37:34.279Z,10.02
2022-09-24T01:40:04.140Z,10.19
2022-09-24T01:42:32.550Z,10.24
2022-09-24T01:45:03.343Z,9.99
2022-09-24T01:47:35.297Z,9.89
2022-09-24T01:50:04.379Z,9.91
2022-09-24T01:52:39.391Z,9.76
2022-09-24T01:55:10.962Z,9.75
2022-09-24T01:57:42.860Z,9.85
2022-09-24T02:00:16.239Z,9.84
2022-09-24T02:02:48.070Z,9.79
2022-09-24T02:05:21.066Z,9.72
2022-09-24T02:07:55.165Z,9.69
2022-09-24T02:10:22.654Z,9.85
2022-09-24T02:12:54.025Z,9.76
2022-09-24T02:15:32.218Z,9.90
2022-09-24T02:18:08.211Z,9.66
2022-09-24T02:20:37.842Z,9.62
2022-09-24T02:23:07.259Z,9.63
2022-09-24T02:25:39.894Z,9.56
2022-09-24T02:28:07.261Z,9.89
2022-09-24T02:30:42.230Z,9.64
2022-09-24T02:33:32.617Z,9.76
2022-09-24T02:35:59.162Z,9.34
2022-09-24T02:38:26.518Z,9.51
2022-09-24T02:40:55.210Z,9.49
2022-09-24T02:43:22.644Z,9.26
2022-09-24T02:45:51.288Z,9.40
2022-09-24T02:48:18.713Z,9.27
2022-09-24T02:50:46.583Z,9.43
2022-09-24T02:53:13.906Z,9.59
2022-09-24T02:55:41.262Z,9.59
2022-09-24T02:58:08.592Z,9.56
2022-09-24T03:00:35.920Z,9.68
2022-09-24T03:03:04.615Z,9.66
2022-09-24T03:05:32.004Z,9.75
2022-09-24T03:07:59.564Z,9.76
2022-09-24T03:10:26.905Z,9.84
2022-09-24T03:12:54.237Z,9.84
2022-09-24T03:15:21.566Z,9.83
2022-09-24T03:17:48.955Z,9.82
2022-09-24T03:20:17.683Z,9.79
2022-09-24T03:22:45.060Z,9.99
2022-09-24T03:25:12.410Z,9.85
2022-09-24T03:27:39.730Z,9.70
2022-09-24T03:30:25.627Z,9.81
2022-09-24T03:32:53.052Z,9.84
2022-09-24T03:35:21.692Z,9.67
2022-09-24T03:37:49.469Z,9.77
2022-09-24T03:40:16.980Z,9.71
2022-09-24T03:42:44.698Z,9.68
2022-09-24T03:45:12.262Z,9.69
2022-09-24T03:47:40.428Z,9.65
2022-09-24T03:50:11.568Z,9.58
2022-09-24T03:52:40.655Z,9.55
2022-09-24T03:55:08.979Z,9.33
2022-09-24T03:57:36.355Z,9.50
2022-09-24T04:00:04.524Z,9.35
2022-09-24T04:02:31.946Z,8.99
2022-09-24T04:04:59.341Z,8.84
2022-09-24T04:07:26.731Z,8.88
2022-09-24T04:09:55.390Z,8.84
2022-09-24T04:12:22.998Z,8.70
2022-09-24T04:14:50.328Z,8.62
2022-09-24T04:17:17.707Z,8.86
2022-09-24T04:19:46.096Z,8.54
2022-09-24T04:22:13.692Z,8.77
2022-09-24T04:24:41.020Z,8.51
2022-09-24T04:27:09.676Z,8.48
2022-09-24T04:29:37.004Z,8.59
2022-09-24T04:32:04.344Z,8.53
2022-09-24T04:34:31.963Z,8.51
2022-09-24T04:36:59.279Z,8.57
2022-09-24T04:39:27.735Z,8.66
2022-09-24T04:41:55.379Z,8.79
2022-09-24T04:44:24.236Z,8.71
2022-09-24T04:46:52.077Z,8.78
2022-09-24T04:49:19.513Z,8.65
2022-09-24T04:51:46.833Z,8.78
2022-09-24T04:54:14.163Z,8.89
2022-09-24T04:56:41.505Z,8.91
2022-09-24T04:59:08.893Z,9.12
2022-09-24T05:01:37.623Z,9.10
2022-09-24T05:04:05.364Z,9.04
2022-09-24T05:06:33.819Z,8.78
2022-09-24T05:09:01.427Z,8.58
2022-09-24T05:11:29.021Z,8.46
2022-09-24T05:13:56.381Z,8.63
2022-09-24T05:16:23.936Z,8.85
2022-09-24T05:18:52.599Z,8.99
2022-09-24T05:21:20.095Z,9.07
2022-09-24T05:23:47.442Z,9.32
2022-09-24T05:26:32.192Z,9.17
2022-09-24T05:28:59.530Z,9.17
2022-09-24T05:31:26.928Z,9.31
2022-09-24T05:33:55.572Z,9.55
2022-09-24T05:36:22.950Z,9.57
2022-09-24T05:38:50.413Z,9.70
2022-09-24T05:41:17.746Z,9.76
2022-09-24T05:43:45.129Z,9.80
2022-09-24T05:46:12.524Z,9.85
2022-09-24T05:48:39.911Z,9.91
2022-09-24T05:51:08.617Z,9.89
2022-09-24T05:53:36.352Z,9.92
2022-09-24T05:56:03.696Z,10.03
2022-09-24T05:58:31.579Z,10.18
2022-09-24T06:01:00.398Z,9.98
2022-09-24T06:03:27.904Z,10.15
2022-09-24T06:05:56.210Z,10.04
2022-09-24T06:08:24.948Z,10.05
2022-09-24T06:10:52.288Z,10.04
2022-09-24T06:13:20.826Z,10.05
2022-09-24T06:15:48.364Z,10.31
2022-09-24T06:18:15.754Z,10.24
2022-09-24T06:20:43.118Z,10.34
2022-09-24T06:23:10.695Z,10.44
2022-09-24T06:25:39.369Z,10.38
2022-09-24T06:28:06.720Z,10.47
2022-09-24T06:30:36.057Z,10.54
2022-09-24T06:33:05.228Z,10.74
2022-09-24T06:35:35.103Z,10.88
2022-09-24T06:38:02.746Z,11.01
2022-09-24T06:40:34.061Z,11.06
2022-09-24T06:43:06.264Z,11.01
2022-09-24T06:45:34.359Z,11.18
2022-09-24T06:48:03.223Z,11.36
2022-09-24T06:50:32.597Z,11.57
2022-09-24T06:52:59.984Z,11.55
2022-09-24T06:55:27.790Z,11.66
2022-09-24T06:58:04.796Z,11.48
2022-09-24T07:00:32.218Z,11.52
2022-09-24T07:02:59.567Z,11.52
2022-09-24T07:05:26.938Z,11.81
2022-09-24T07:07:54.379Z,11.87
2022-09-24T07:10:24.330Z,12.02
2022-09-24T07:12:51.791Z,12.19
2022-09-24T07:15:20.756Z,12.24
2022-09-24T07:17:48.130Z,12.45
2022-09-24T07:20:15.528Z,12.60
2022-09-24T07:22:43.082Z,12.72
2022-09-24T07:25:11.970Z,13.08
2022-09-24T07:27:40.275Z,13.13
2022-09-24T07:30:09.840Z,13.24
2022-09-24T07:32:38.499Z,13.37
2022-09-24T07:35:06.935Z,13.37
2022-09-24T07:37:34.430Z,13.60
2022-09-24T07:40:02.408Z,13.69
2022-09-24T07:42:29.853Z,13.80
2022-09-24T07:44:57.436Z,13.91
2022-09-24T07:47:24.786Z,14.01
2022-09-24T07:49:53.547Z,14.27
2022-09-24T07:52:20.895Z,14.51
2022-09-24T07:54:48.704Z,14.69
2022-09-24T07:57:16.054Z,14.74
2022-09-24T07:59:44.722Z,14.64
2022-09-24T08:02:17.583Z,14.54
2022-09-24T08:04:44.998Z,14.64
2022-09-24T08:07:14.682Z,14.85
2022-09-24T08:09:42.231Z,14.94
2022-09-24T08:12:09.977Z,14.84
2022-09-24T08:14:37.319Z,14.89
2022-09-24T08:17:04.678Z,15.00
2022-09-24T08:19:33.117Z,15.16
2022-09-24T08:22:00.667Z,15.40
2022-09-24T08:24:29.337Z,15.39
2022-09-24T08:26:56.724Z,15.68
2022-09-24T08:29:24.204Z,15.60
2022-09-24T08:31:51.592Z,15.79
2022-09-24T08:34:18.935Z,15.58
2022-09-24T08:36:49.571Z,15.89
2022-09-24T08:39:17.009Z,15.89
2022-09-24T08:42:05.403Z,15.94
2022-09-24T08:44:56.532Z,16.02
2022-09-24T08:47:36.168Z,16.60
2022-09-24T08:50:10.292Z,17.06
2022-09-24T08:52:51.654Z,16.98
2022-09-24T08:55:23.259Z,16.93
2022-09-24T08:58:00.243Z,17.28
2022-09-24T09:00:30.405Z,17.57
2022-09-24T09:03:06.089Z,17.90
2022-09-24T09:05:49.867Z,17.88
2022-09-24T09:08:50.076Z,18.01
2022-09-24T09:11:17.182Z,17.91
2022-09-24T09:13:52.789Z,17.91
2022-09-24T09:16:25.956Z,18.07
2022-09-24T09:18:59.681Z,18.64
2022-09-24T09:21:31.948Z,18.93
2022-09-24T09:24:02.334Z,18.88
2022-09-24T09:26:29.739Z,18.78
2022-09-24T09:29:00.946Z,18.71
2022-09-24T09:31:37.469Z,19.37
2022-09-24T09:34:28.205Z,19.21
2022-09-24T09:37:08.659Z,19.13
2022-09-24T09:39:46.565Z,19.13
2022-09-24T09:42:27.883Z,19.13
2022-09-24T09:44:56.882Z,19.30
2022-09-24T09:47:35.998Z,19.37
2022-09-24T09:50:06.868Z,19.15
2022-09-24T09:52:41.452Z,19.47
2022-09-24T09:55:20.666Z,19.45
2022-09-24T09:57:48.466Z,19.68
2022-09-24T10:00:27.987Z,19.89
2022-09-24T10:02:56.273Z,20.16
2022-09-24T10:05:28.550Z,20.24
2022-09-24T10:07:57.624Z,20.45
2022-09-24T10:10:26.253Z,20.22
2022-09-24T10:12:54.812Z,20.07
2022-09-24T10:15:25.726Z,20.19
2022-09-24T10:17:55.969Z,20.25
2022-09-24T10:20:27.749Z,20.56
2022-09-24T10:22:59.379Z,20.85
2022-09-24T10:25:29.392Z,20.85
2022-09-24T10:28:19.894Z,20.45
2022-09-24T10:30:53.114Z,20.48
2022-09-24T10:33:22.160Z,20.29
2022-09-24T10:35:49.682Z,19.80
2022-09-24T10:38:19.155Z,19.89
2022-09-24T10:40:47.627Z,20.01
2022-09-24T10:43:20.263Z,19.92
2022-09-24T10:46:12.903Z,19.89
2022-09-24T10:48:46.094Z,20.20
2022-09-24T10:51:29.306Z,20.39
2022-09-24T10:54:10.658Z,20.87
2022-09-24T10:56:45.967Z,20.90
2022-09-24T10:59:27.967Z,20.86
2022-09-24T11:02:10.664Z,19.98
2022-09-24T11:04:51.798Z,20.09
2022-09-24T11:07:39.284Z,20.54
2022-09-24T11:10:21.935Z,20.43
2022-09-24T11:13:02.250Z,20.59
2022-09-24T11:15:45.620Z,20.82
2022-09-24T11:18:31.508Z,20.68
2022-09-24T11:21:14.249Z,19.60
2022-09-24T11:23:58.287Z,19.58
2022-09-24T11:26:30.153Z,19.97
2022-09-24T11:29:16.837Z,20.16
2022-09-24T11:31:54.191Z,20.62
2022-09-24T11:34:38.174Z,20.40
2022-09-24T11:37:23.182Z,20.23
2022-09-24T11:40:05.447Z,20.47
2022-09-24T11:42:38.565Z,20.60
2022-09-24T11:45:28.621Z,20.65
2022-09-24T11:48:14.161Z,20.77
2022-09-24T11:50:54.233Z,20.44
2022-09-24T11:53:30.782Z,20.45
2022-09-24T11:56:02.679Z,20.44
2022-09-24T11:58:34.402Z,20.55
2022-09-24T12:01:11.276Z,20.50
2022-09-24T12:03:45.006Z,20.47
2022-09-24T12:06:16.148Z,20.74
2022-09-24T12:08:50.419Z,20.71
2022-09-24T12:11:20.722Z,20.74
2022-09-24T12:13:52.300Z,20.72
2022-09-24T12:16:24.502Z,20.91
2022-09-24T12:18:57.258Z,20.82
2022-09-24T12:21:30.323Z,20.54
2022-09-24T12:24:05.045Z,20.70
2022-09-24T12:26:36.911Z,20.70
2022-09-24T12:29:39.517Z,20.14
2022-09-24T12:32:32.239Z,20.01
2022-09-24T12:35:09.576Z,20.05
2022-09-24T12:37:41.076Z,20.22
2022-09-24T12:40:26.930Z,20.29
2022-09-24T12:43:00.566Z,20.35
2022-09-24T12:45:28.469Z,20.40
2022-09-24T12:47:59.816Z,20.31
2022-09-24T12:50:29.837Z,20.14
2022-09-24T12:52:57.859Z,19.83
2022-09-24T12:55:28.805Z,19.70
2022-09-24T12:57:59.251Z,19.41
2022-09-24T13:00:39.945Z,19.20
2022-09-24T13:03:27.132Z,19.28
2022-09-24T13:05:55.458Z,19.03
2022-09-24T13:08:27.515Z,19.08
2022-09-24T13:10:58.758Z,19.15
2022-09-24T13:13:28.665Z,19.39
2022-09-24T13:16:02.482Z,19.64
2022-09-24T13:18:32.104Z,19.75
2022-09-24T13:21:03.151Z,19.92
2022-09-24T13:23:35.267Z,19.83
2022-09-24T13:26:05.897Z,19.98
2022-09-24T13:28:42.625Z,20.30
2022-09-24T13:31:21.020Z,20.31
2022-09-24T13:33:52.596Z,20.22
2022-09-24T13:36:26.919Z,19.94
2022-09-24T13:39:01.988Z,20.09
2022-09-24T13:41:42.947Z,19.86
2022-09-24T13:44:18.049Z,20.16
2022-09-24T13:46:48.547Z,20.24
2022-09-24T13:49:19.301Z,20.17
2022-09-24T13:51:51.078Z,19.98
2022-09-24T13:54:25.475Z,19.90
2022-09-24T13:57:10.650Z,19.77
2022-09-24T13:59:38.543Z,19.70
2022-09-24T14:02:23.781Z,19.73
2022-09-24T14:04:54.680Z,19.82
2022-09-24T14:07:22.698Z,19.78
2022-09-24T14:09:51.323Z,19.99
2022-09-24T14:12:22.793Z,19.99
2022-09-24T14:14:58.271Z,20.09
2022-09-24T14:17:26.547Z,20.12
2022-09-24T14:19:57.868Z,20.13
2022-09-24T14:22:29.854Z,20.05
2022-09-24T14:25:01.840Z,20.15
2022-09-24T14:27:33.794Z,19.99
2022-09-24T14:30:03.084Z,19.90
2022-09-24T14:32:32.546Z,19.87
2022-09-24T14:35:01.895Z,19.80
2022-09-24T14:37:32.604Z,19.83
2022-09-24T14:40:04.650Z,19.72
2022-09-24T14:42:40.423Z,19.65
2022-09-24T14:45:10.757Z,19.44
2022-09-24T14:47:38.424Z,19.27
2022-09-24T14:50:35.338Z,19.39
2022-09-24T14:53:03.198Z,19.43
2022-09-24T14:55:39.195Z,19.41
2022-09-24T14:58:24.016Z,19.41
2022-09-24T15:00:56.171Z,19.77
2022-09-24T15:03:29.242Z,19.62
2022-09-24T15:06:05.513Z,19.64
2022-09-24T15:08:32.937Z,19.57
2022-09-24T15:11:02.774Z,19.72
2022-09-24T15:13:34.234Z,19.52
2022-09-24T15:16:04.120Z,19.59
2022-09-24T15:18:31.712Z,19.54
2022-09-24T15:20:59.798Z,19.58
2022-09-24T15:23:27.169Z,19.40
2022-09-24T15:25:54.911Z,19.32
2022-09-24T15:28:27.053Z,19.15
2022-09-24T15:30:56.853Z,18.91
2022-09-24T15:33:24.711Z,18.86
2022-09-24T15:35:52.555Z,18.72
2022-09-24T15:38:20.965Z,18.60
2022-09-24T15:40:51.421Z,18.53
2022-09-24T15:43:23.359Z,18.53
2022-09-24T15:45:51.549Z,18.41
2022-09-24T15:48:20.331Z,18.28
2022-09-24T15:50:50.283Z,18.17
2022-09-24T15:53:20.040Z,18.18
2022-09-24T15:55:51.116Z,18.07
2022-09-24T15:58:19.635Z,18.06
2022-09-24T16:00:47.321Z,18.04
2022-09-24T16:03:20.945Z,18.05
2022-09-24T16:05:49.323Z,17.94
2022-09-24T16:08:16.742Z,17.94
2022-09-24T16:10:44.885Z,17.95
2022-09-24T16:13:13.194Z,17.81
2022-09-24T16:15:41.337Z,17.67
2022-09-24T16:18:12.325Z,17.70
2022-09-24T16:20:41.830Z,17.53
2022-09-24T16:23:14.940Z,17.55
2022-09-24T16:25:43.157Z,17.44
2022-09-24T16:28:10.506Z,17.29
2022-09-24T16:30:39.212Z,17.37
2022-09-24T16:33:06.547Z,17.27
2022-09-24T16:35:33.916Z,17.27
2022-09-24T16:38:02.587Z,17.17
2022-09-24T16:40:30.185Z,17.03
2022-09-24T16:42:57.607Z,17.07
2022-09-24T16:45:24.947Z,17.06
2022-09-24T16:47:52.315Z,17.01
2022-09-24T16:50:23.368Z,16.94
2022-09-24T16:52:54.682Z,16.70
2022-09-24T16:55:24.345Z,16.83
2022-09-24T16:57:52.456Z,16.57
2022-09-24T17:00:20.640Z,16.58
2022-09-24T17:02:48.066Z,16.79
2022-09-24T17:05:15.480Z,16.57
2022-09-24T17:07:42.816Z,16.67
2022-09-24T17:10:13.598Z,16.66
2022-09-24T17:12:43.436Z,16.59
2022-09-24T17:15:11.052Z,16.64
2022-09-24T17:17:48.623Z,16.54
2022-09-24T17:20:17.761Z,16.45
2022-09-24T17:22:45.282Z,16.45
2022-09-24T17:25:12.633Z,16.59
2022-09-24T17:27:40.777Z,16.33
2022-09-24T17:30:10.819Z,16.37
2022-09-24T17:32:38.156Z,16.34
2022-09-24T17:35:06.252Z,16.19
2022-09-24T17:37:33.707Z,16.22
2022-09-24T17:40:01.087Z,16.10
2022-09-24T17:42:28.543Z,16.04
2022-09-24T17:44:55.883Z,15.95
2022-09-24T17:47:44.605Z,15.88
2022-09-24T17:50:12.025Z,15.85
2022-09-24T17:52:39.404Z,15.70
2022-09-24T17:55:08.440Z,15.65
2022-09-24T17:57:35.789Z,15.56
2022-09-24T18:00:04.284Z,15.32
2022-09-24T18:02:32.984Z,15.34
2022-09-24T18:05:00.384Z,15.56
2022-09-24T18:07:27.696Z,15.34
2022-09-24T18:09:56.005Z,15.30
2022-09-24T18:12:23.518Z,15.17
2022-09-24T18:14:50.862Z,15.21
2022-09-24T18:17:18.194Z,15.19
2022-09-24T18:19:46.842Z,15.00
2022-09-24T18:22:14.169Z,15.00
2022-09-24T18:24:41.983Z,15.02
2022-09-24T18:27:09.416Z,15.02
2022-09-24T18:29:37.506Z,14.69
2022-09-24T18:32:05.439Z,14.62
2022-09-24T18:34:32.914Z,14.41
2022-09-24T18:37:01.589Z,14.35
2022-09-24T18:39:29.164Z,14.36
2022-09-24T18:41:56.497Z,14.38
2022-09-24T18:44:25.202Z,14.40
2022-09-24T18:46:52.614Z,14.27
2022-09-24T18:49:20.256Z,14.12
2022-09-24T18:51:48.867Z,14.12
2022-09-24T18:54:18.306Z,14.05
2022-09-24T18:56:46.628Z,13.93
2022-09-24T18:59:15.885Z,13.80
2022-09-24T19:01:44.963Z,13.72
2022-09-24T19:04:14.379Z,13.71
2022-09-24T19:06:43.578Z,13.66
2022-09-24T19:09:13.352Z,13.61
2022-09-24T19:11:42.298Z,13.79
2022-09-24T19:14:11.289Z,13.38
2022-09-24T19:16:38.703Z,13.34
2022-09-24T19:19:06.260Z,13.31
2022-09-24T19:21:33.674Z,13.43
2022-09-24T19:24:01.098Z,13.22
2022-09-24T19:26:30.395Z,13.09
2022-09-24T19:28:59.440Z,12.84
2022-09-24T19:31:30.339Z,12.89
2022-09-24T19:34:00.025Z,12.83
2022-09-24T19:36:27.418Z,12.86
2022-09-24T19:38:54.837Z,13.00
2022-09-24T19:41:26.484Z,12.99
2022-09-24T19:43:55.926Z,12.96
2022-09-24T19:46:26.363Z,12.95
2022-09-24T19:48:55.353Z,13.09
2022-09-24T19:51:24.603Z,13.10
2022-09-24T19:53:54.122Z,13.25
2022-09-24T19:56:23.328Z,13.42
2022-09-24T19:58:52.644Z,13.54
2022-09-24T20:01:21.583Z,13.51
2022-09-24T20:03:50.850Z,13.56
2022-09-24T20:06:20.003Z,13.59
2022-09-24T20:08:47.970Z,13.43
2022-09-24T20:11:20.251Z,13.24
2022-09-24T20:13:48.326Z,13.30
2022-09-24T20:16:19.542Z,13.49
2022-09-24T20:18:47.661Z,13.32
2022-09-24T20:21:18.272Z,13.26
2022-09-24T20:23:46.313Z,13.33
2022-09-24T20:26:32.824Z,13.19
2022-09-24T20:29:00.241Z,13.25
2022-09-24T20:31:27.697Z,13.27
2022-09-24T20:33:55.154Z,13.27
2022-09-24T20:36:25.326Z,13.29
2022-09-24T20:38:53.697Z,13.45
2022-09-24T20:41:23.486Z,13.58
2022-09-24T20:43:51.244Z,13.49
2022-09-24T20:46:21.940Z,13.33
2022-09-24T20:48:49.514Z,13.33
2022-09-24T20:51:18.629Z,13.10
2022-09-24T20:53:48.580Z,13.35
2022-09-24T20:56:17.017Z,13.11
2022-09-24T20:58:44.416Z,12.61
2022-09-24T21:01:12.426Z,12.44
2022-09-24T21:03:45.839Z,12.37
2022-09-24T21:06:14.885Z,12.44
2022-09-24T21:08:44.298Z,12.52
2022-09-24T21:11:15.956Z,12.58
2022-09-24T21:13:45.116Z,12.33
2022-09-24T21:16:13.002Z,12.33
2022-09-24T21:18:44.327Z,12.26
2022-09-24T21:21:15.981Z,12.24
2022-09-24T21:23:44.004Z,12.36
2022-09-24T21:26:14.623Z,12.20
2022-09-24T21:28:43.514Z,12.41
2022-09-24T21:31:11.092Z,12.24
2022-09-24T21:33:38.485Z,12.23
2022-09-24T21:36:07.822Z,12.16
2022-09-24T21:38:35.360Z,12.06
2022-09-24T21:41:03.569Z,11.97
2022-09-24T21:43:34.983Z,11.82
2022-09-24T21:46:04.890Z,11.95
2022-09-24T21:48:33.535Z,11.73
2022-09-24T21:51:05.736Z,11.79
2022-09-24T21:53:34.034Z,11.70
2022-09-24T21:56:02.205Z,11.76
2022-09-24T21:58:31.860Z,11.81
2022-09-24T22:01:04.766Z,11.59
2022-09-24T22:03:33.035Z,11.71
2022-09-24T22:06:03.280Z,11.80
2022-09-24T22:08:31.920Z,11.96
2022-09-24T22:11:05.368Z,11.81
2022-09-24T22:13:36.815Z,11.53
2022-09-24T22:16:05.783Z,11.32
2022-09-24T22:18:34.152Z,11.37
2022-09-24T22:21:08.013Z,11.43
2022-09-24T22:23:35.444Z,11.13
2022-09-24T22:26:02.914Z,10.96
2022-09-24T22:28:30.570Z,10.84
2022-09-24T22:31:04.160Z,10.84
2022-09-24T22:33:49.781Z,10.93
2022-09-24T22:36:17.271Z,11.04
2022-09-24T22:38:44.671Z,11.13
2022-09-24T22:41:12.572Z,11.26
2022-09-24T22:43:40.284Z,10.88
2022-09-24T22:46:11.476Z,10.63
2022-09-24T22:48:39.764Z,10.98
2022-09-24T22:51:08.748Z,11.19
2022-09-24T22:53:38.213Z,11.32
2022-09-24T22:56:07.773Z,11.38
2022-09-24T22:58:36.295Z,11.16
2022-09-24T23:01:09.271Z,11.02
2022-09-24T23:03:37.755Z,10.83
2022-09-24T23:06:05.931Z,10.79
2022-09-24T23:08:34.273Z,10.87
2022-09-24T23:11:07.084Z,10.86
2022-09-24T23:13:34.740Z,10.95
2022-09-24T23:16:12.526Z,11.05
2022-09-24T23:18:40.119Z,10.78
2022-09-24T23:21:08.997Z,10.82
2022-09-24T23:23:36.791Z,10.91
2022-09-24T23:26:07.067Z,10.78
2022-09-24T23:28:35.485Z,11.00
2022-09-24T23:31:03.986Z,11.17
2022-09-24T23:33:34.289Z,10.91
2022-09-24T23:36:03.057Z,10.80
2022-09-24T23:38:31.049Z,10.82
2022-09-24T23:40:58.703Z,10.79
2022-09-24T23:43:26.067Z,10.58
2022-09-24T23:45:53.519Z,10.60
2022-09-24T23:48:21.502Z,10.84
2022-09-24T23:50:51.099Z,10.60
2022-09-24T23:53:21.652Z,10.59
2022-09-24T23:55:50.177Z,10.74
2022-09-24T23:58:20.018Z,10.65
